This is the latest recevied weather packets stored in our database for station/object DL9SEC-13. If no packets are shown the sender has not sent any weather packets the latest 10 day(s).
| Time | Temp. | Humidity | Pressure | Rain* | Wind** | Luminosity | Snow |
|---|---|---|---|---|---|---|---|
| 1777371904 | 20° C | 29% | 1020.2 hPa | 0 mm | - | - | - |
| 1777371003 | 20.56° C | 29% | 1020.3 hPa | 0 mm | - | - | - |
| 1777370104 | 20° C | 31% | 1020.3 hPa | 0 mm | - | - | - |
| 1777369203 | 20° C | 33% | 1020.4 hPa | 0 mm | - | - | - |
| 1777368303 | 20.56° C | 33% | 1020.5 hPa | 0 mm | - | - | - |
| 1777367403 | 20.56° C | 34% | 1020.5 hPa | 0 mm | - | - | - |
| 1777366504 | 20° C | 36% | 1020.5 hPa | 0 mm | - | - | - |
| 1777365603 | 20° C | 35% | 1020.4 hPa | 0 mm | - | - | - |
| 1777364703 | 19.44° C | 37% | 1020.5 hPa | 0 mm | - | - | - |
| 1777363803 | 17.78° C | 39% | 1020.5 hPa | 0 mm | - | - | - |
| 1777362904 | 17.22° C | 39% | 1020.4 hPa | 0 mm | - | - | - |
| 1777362003 | 17.22° C | 39% | 1020.4 hPa | 0 mm | - | - | - |
| 1777361103 | 15.56° C | 41% | 1020.4 hPa | 0 mm | - | - | - |
| 1777360204 | 15.56° C | 40% | 1020.5 hPa | 0 mm | - | - | - |
| 1777359303 | 14.44° C | 41% | 1020.6 hPa | 0 mm | - | - | - |
| 1777358403 | 14.44° C | 41% | 1020.7 hPa | 0 mm | - | - | - |
| 1777357504 | 13.33° C | 41% | 1020.6 hPa | 0 mm | - | - | - |
| 1777356604 | 13.33° C | 44% | 1020.5 hPa | 0 mm | - | - | - |
| 1777355703 | 12.78° C | 46% | 1020.6 hPa | 0 mm | - | - | - |
| 1777354803 | 10.56° C | 54% | 1020.4 hPa | 0 mm | - | - | - |
| 1777353903 | 10° C | 55% | 1020.3 hPa | 0 mm | - | - | - |
| 1777353003 | 10.56° C | 54% | 1020.2 hPa | 0 mm | - | - | - |
| 1777352104 | 8.89° C | 55% | 1020 hPa | 0 mm | - | - | - |
| 1777351203 | 8.89° C | 58% | 1020 hPa | 0 mm | - | - | - |
| 1777350303 | 8.89° C | 59% | 1019.9 hPa | 0 mm | - | - | - |
* Rain latest hour (hover to see other rain measurements)
** Current wind speed in m/s (hover to see current wind gust speed)